createdAt,value
2022-09-20T00:02:23.712Z,7.28
2022-09-20T00:04:50.235Z,6.03
2022-09-20T00:07:16.807Z,8.17
2022-09-20T00:09:43.350Z,6.65
2022-09-20T00:12:09.898Z,6.78
2022-09-20T00:14:36.445Z,7.00
2022-09-20T00:17:04.519Z,7.10
2022-09-20T00:19:31.055Z,7.70
2022-09-20T00:21:57.575Z,7.18
2022-09-20T00:24:25.351Z,6.50
2022-09-20T00:26:52.143Z,6.15
2022-09-20T00:29:18.683Z,10.00
2022-09-20T00:31:45.332Z,6.13
2022-09-20T00:34:13.358Z,6.47
2022-09-20T00:36:39.892Z,6.30
2022-09-20T00:39:06.458Z,6.80
2022-09-20T00:41:33.562Z,8.15
2022-09-20T00:44:00.153Z,7.27
2022-09-20T00:46:32.188Z,7.22
2022-09-20T00:49:06.193Z,5.38
2022-09-20T00:51:38.702Z,6.97
2022-09-20T00:54:09.144Z,6.03
2022-09-20T00:56:39.772Z,6.47
2022-09-20T00:59:11.109Z,6.40
2022-09-20T01:01:37.932Z,5.47
2022-09-20T01:04:04.894Z,6.13
2022-09-20T01:06:34.400Z,6.43
2022-09-20T01:09:05.222Z,6.83
2022-09-20T01:11:31.973Z,5.68
2022-09-20T01:13:58.477Z,7.75
2022-09-20T01:16:26.959Z,7.57
2022-09-20T01:18:57.131Z,8.10
2022-09-20T01:21:24.855Z,7.23
2022-09-20T01:24:00.203Z,7.20
2022-09-20T01:26:41.589Z,6.45
2022-09-20T01:29:25.886Z,6.60
2022-09-20T01:31:55.082Z,6.32
2022-09-20T01:34:28.907Z,8.93
2022-09-20T01:37:06.352Z,8.98
2022-09-20T01:39:41.466Z,6.18
2022-09-20T01:42:10.448Z,6.78
2022-09-20T01:44:46.774Z,9.00
2022-09-20T01:47:26.180Z,7.37
2022-09-20T01:50:01.971Z,5.88
2022-09-20T01:52:51.030Z,7.95
2022-09-20T01:55:37.879Z,9.35
2022-09-20T01:58:39.443Z,8.00
2022-09-20T02:01:34.704Z,8.13
2022-09-20T02:04:34.519Z,6.65
2022-09-20T02:07:20.305Z,6.75
2022-09-20T02:10:08.009Z,8.48
2022-09-20T02:12:53.956Z,8.20
2022-09-20T02:15:44.826Z,5.87
2022-09-20T02:18:28.881Z,7.35
2022-09-20T02:21:03.103Z,8.07
2022-09-20T02:23:40.520Z,6.90
2022-09-20T02:26:24.676Z,9.40
2022-09-20T02:29:01.844Z,6.67
2022-09-20T02:31:44.417Z,7.13
2022-09-20T02:34:32.826Z,7.38
2022-09-20T02:37:15.600Z,6.00
2022-09-20T02:39:48.897Z,7.63
2022-09-20T02:42:18.688Z,8.77
2022-09-20T02:45:03.801Z,8.10
2022-09-20T02:47:35.236Z,7.60
2022-09-20T02:50:28.783Z,6.22
2022-09-20T02:53:08.426Z,7.80
2022-09-20T02:55:42.005Z,7.30
2022-09-20T02:58:23.839Z,6.63
2022-09-20T03:00:57.650Z,8.30
2022-09-20T03:03:36.719Z,8.35
2022-09-20T03:06:11.146Z,7.57
2022-09-20T03:08:51.453Z,6.70
2022-09-20T03:11:27.763Z,6.35
2022-09-20T03:14:10.513Z,9.35
2022-09-20T03:16:52.491Z,8.07
2022-09-20T03:19:32.356Z,7.63
2022-09-20T03:22:12.061Z,6.33
2022-09-20T03:24:48.812Z,9.75
2022-09-20T03:27:23.946Z,7.22
2022-09-20T03:30:03.726Z,7.03
2022-09-20T03:32:43.892Z,7.35
2022-09-20T03:35:26.723Z,8.87
2022-09-20T03:38:06.519Z,7.22
2022-09-20T03:41:05.247Z,7.72
2022-09-20T03:43:50.202Z,8.93
2022-09-20T03:46:19.461Z,7.47
2022-09-20T03:49:12.325Z,7.43
2022-09-20T03:51:47.969Z,9.88
2022-09-20T03:54:48.952Z,7.80
2022-09-20T03:57:57.456Z,7.05
2022-09-20T04:00:36.840Z,8.20
2022-09-20T04:03:20.704Z,8.67
2022-09-20T04:06:10.903Z,10.57
2022-09-20T04:09:04.739Z,7.55
2022-09-20T04:11:41.984Z,6.25
2022-09-20T04:14:15.905Z,6.95
2022-09-20T04:16:49.458Z,9.00
2022-09-20T04:19:28.547Z,7.45
2022-09-20T04:22:00.635Z,10.98
2022-09-20T04:24:40.535Z,8.73
2022-09-20T04:27:16.856Z,9.88
2022-09-20T04:29:47.391Z,7.60
2022-09-20T04:32:19.395Z,8.88
2022-09-20T04:34:51.413Z,8.10
2022-09-20T04:37:27.220Z,8.10
2022-09-20T04:40:04.320Z,6.40
2022-09-20T04:42:56.447Z,8.80
2022-09-20T04:45:59.235Z,8.95
2022-09-20T04:49:06.515Z,9.65
2022-09-20T04:52:03.058Z,8.73
2022-09-20T04:55:02.316Z,7.40
2022-09-20T04:58:07.112Z,9.90
2022-09-20T05:00:50.947Z,13.43
2022-09-20T05:03:45.927Z,6.88
2022-09-20T05:06:35.128Z,6.93
2022-09-20T05:09:43.492Z,9.05
2022-09-20T05:12:33.582Z,8.57
2022-09-20T05:15:27.680Z,10.70
2022-09-20T05:18:15.396Z,11.15
2022-09-20T05:20:57.204Z,8.63
2022-09-20T05:23:49.889Z,8.07
2022-09-20T05:26:26.619Z,6.77
2022-09-20T05:28:59.699Z,8.05
2022-09-20T05:31:35.972Z,7.13
2022-09-20T05:34:14.139Z,8.63
2022-09-20T05:36:52.709Z,8.73
2022-09-20T05:39:32.827Z,12.97
2022-09-20T05:42:05.550Z,10.80
2022-09-20T05:44:54.171Z,9.77
2022-09-20T05:47:31.455Z,10.63
2022-09-20T05:50:14.936Z,9.10
2022-09-20T05:52:52.533Z,8.00
2022-09-20T05:55:35.174Z,7.47
2022-09-20T05:58:25.141Z,9.07
2022-09-20T06:00:57.919Z,11.23
2022-09-20T06:03:35.435Z,10.38
2022-09-20T06:06:12.755Z,10.63
2022-09-20T06:09:04.745Z,9.00
2022-09-20T06:11:48.726Z,9.32
2022-09-20T06:14:31.784Z,11.68
2022-09-20T06:17:09.542Z,11.82
2022-09-20T06:19:42.504Z,9.13
2022-09-20T06:22:18.694Z,10.18
2022-09-20T06:24:50.053Z,9.35
2022-09-20T06:27:20.738Z,9.68
2022-09-20T06:29:52.472Z,8.82
2022-09-20T06:32:19.747Z,10.33
2022-09-20T06:34:47.338Z,10.57
2022-09-20T06:37:24.120Z,6.85
2022-09-20T06:39:59.745Z,9.88
2022-09-20T06:42:27.304Z,9.85
2022-09-20T06:44:54.341Z,8.73
2022-09-20T06:47:20.898Z,8.63
2022-09-20T06:49:47.399Z,8.73
2022-09-20T06:52:17.089Z,7.68
2022-09-20T06:54:44.768Z,8.93
2022-09-20T06:57:13.936Z,7.77
2022-09-20T06:59:40.529Z,8.85
2022-09-20T07:02:07.207Z,8.60
2022-09-20T07:04:33.825Z,11.75
2022-09-20T07:07:00.603Z,8.77
2022-09-20T07:09:28.811Z,11.00
2022-09-20T07:11:55.417Z,8.10
2022-09-20T07:14:22.970Z,8.82
2022-09-20T07:16:49.535Z,9.55
2022-09-20T07:19:16.102Z,8.43
2022-09-20T07:21:42.638Z,10.03
2022-09-20T07:24:09.134Z,8.18
2022-09-20T07:26:37.403Z,9.32
2022-09-20T07:29:03.931Z,9.70
2022-09-20T07:31:30.559Z,8.07
2022-09-20T07:33:57.123Z,5.47
2022-09-20T07:36:23.668Z,5.75
2022-09-20T07:38:52.069Z,9.48
2022-09-20T07:41:19.962Z,7.97
2022-09-20T07:43:47.809Z,6.70
2022-09-20T07:46:14.435Z,6.33
2022-09-20T07:48:41.788Z,9.03
2022-09-20T07:51:10.153Z,6.15
2022-09-20T07:53:36.842Z,6.07
2022-09-20T07:56:05.227Z,6.82
2022-09-20T07:58:34.039Z,7.13
2022-09-20T08:01:04.369Z,8.33
2022-09-20T08:03:31.533Z,9.95
2022-09-20T08:06:02.627Z,7.18
2022-09-20T08:08:32.545Z,8.48
2022-09-20T08:11:03.279Z,8.18
2022-09-20T08:16:17.733Z,8.75
2022-09-20T08:18:46.349Z,7.75
2022-09-20T08:21:13.776Z,5.78
2022-09-20T08:23:41.912Z,5.20
2022-09-20T08:26:11.340Z,6.53
2022-09-20T08:28:38.696Z,5.57
2022-09-20T08:31:07.156Z,6.72
2022-09-20T08:33:35.891Z,7.88
2022-09-20T08:36:02.696Z,7.20
2022-09-20T08:41:20.482Z,7.07
2022-09-20T08:43:52.156Z,11.48
2022-09-20T08:46:24.028Z,8.80
2022-09-20T08:48:52.218Z,7.18
2022-09-20T08:51:23.687Z,8.57
2022-09-20T08:53:52.917Z,7.03
2022-09-20T08:56:20.762Z,7.50
2022-09-20T08:58:47.527Z,6.18
2022-09-20T09:01:20.377Z,6.50
2022-09-20T09:03:46.934Z,8.33
2022-09-20T09:06:18.648Z,4.93
2022-09-20T09:08:45.312Z,6.65
2022-09-20T09:11:15.247Z,8.40
2022-09-20T09:13:48.580Z,8.60
2022-09-20T09:16:22.716Z,9.63
2022-09-20T09:18:50.839Z,4.05
2022-09-20T09:21:21.158Z,6.72
2022-09-20T09:23:53.367Z,7.95
2022-09-20T09:26:22.191Z,9.18
2022-09-20T09:29:07.932Z,10.73
2022-09-20T09:31:34.914Z,7.32
2022-09-20T09:34:01.428Z,6.03
2022-09-20T09:36:29.477Z,6.43
2022-09-20T09:39:14.968Z,8.15
2022-09-20T09:41:41.537Z,9.10
2022-09-20T09:44:20.204Z,7.18
2022-09-20T09:46:47.168Z,6.35
2022-09-20T09:49:16.318Z,4.60
2022-09-20T09:52:01.247Z,7.15
2022-09-20T09:54:29.511Z,5.67
2022-09-20T09:57:07.800Z,5.65
2022-09-20T09:59:50.331Z,5.78
2022-09-20T10:02:28.922Z,5.22
2022-09-20T10:05:02.354Z,4.43
2022-09-20T10:07:38.450Z,4.60
2022-09-20T10:10:14.043Z,4.80
2022-09-20T10:12:58.601Z,5.40
2022-09-20T10:15:34.777Z,5.93
2022-09-20T10:18:16.799Z,5.40
2022-09-20T10:20:59.056Z,7.53
2022-09-20T10:24:01.897Z,4.70
2022-09-20T10:26:49.476Z,5.25
2022-09-20T10:29:27.853Z,4.78
2022-09-20T10:32:04.692Z,3.50
2022-09-20T10:34:47.711Z,5.17
2022-09-20T10:37:21.971Z,5.85
2022-09-20T10:40:02.343Z,5.25
2022-09-20T10:42:42.625Z,5.32
2022-09-20T10:45:29.835Z,4.78
2022-09-20T10:48:05.662Z,4.97
2022-09-20T10:50:41.075Z,4.30
2022-09-20T10:53:25.658Z,5.47
2022-09-20T10:56:02.199Z,5.38
2022-09-20T10:59:02.470Z,3.58
2022-09-20T11:01:36.662Z,3.10
2022-09-20T11:04:31.725Z,3.17
2022-09-20T11:07:08.291Z,4.13
2022-09-20T11:09:38.811Z,4.13
2022-09-20T11:12:14.590Z,3.58
2022-09-20T11:14:44.588Z,4.10
2022-09-20T11:17:17.030Z,7.97
2022-09-20T11:19:52.072Z,8.25
2022-09-20T11:22:22.243Z,3.10
2022-09-20T11:24:52.506Z,4.57
2022-09-20T11:27:25.133Z,4.07
2022-09-20T11:29:56.031Z,5.72
2022-09-20T11:32:26.725Z,4.80
2022-09-20T11:34:56.772Z,6.07
2022-09-20T11:37:30.341Z,6.13
2022-09-20T11:40:01.346Z,5.93
2022-09-20T11:42:33.221Z,5.30
2022-09-20T11:45:00.076Z,5.80
2022-09-20T11:47:53.304Z,6.05
2022-09-20T11:50:44.959Z,4.68
2022-09-20T11:53:24.952Z,5.83
2022-09-20T11:55:56.735Z,7.28
2022-09-20T11:58:25.510Z,6.22
2022-09-20T12:00:55.623Z,9.07
2022-09-20T12:03:28.871Z,5.38
2022-09-20T12:05:57.979Z,5.07
2022-09-20T12:08:29.269Z,5.80
2022-09-20T12:10:59.400Z,6.25
2022-09-20T12:13:28.077Z,4.60
2022-09-20T12:16:00.891Z,5.03
2022-09-20T12:19:00.885Z,6.33
2022-09-20T12:21:27.444Z,4.53
2022-09-20T12:24:19.857Z,5.28
2022-09-20T12:26:52.274Z,5.60
2022-09-20T12:30:12.750Z,6.93
2022-09-20T12:32:51.740Z,7.28
2022-09-20T12:35:52.049Z,7.80
2022-09-20T12:38:36.845Z,4.63
2022-09-20T12:41:07.941Z,4.70
2022-09-20T12:43:37.330Z,7.13
2022-09-20T12:46:08.671Z,6.07
2022-09-20T12:48:39.484Z,5.37
2022-09-20T12:51:19.493Z,5.85
2022-09-20T12:54:00.144Z,5.13
2022-09-20T12:56:27.313Z,6.68
2022-09-20T12:58:56.581Z,5.88
2022-09-20T13:01:34.029Z,6.70
2022-09-20T13:04:52.737Z,5.90
2022-09-20T13:07:51.876Z,5.63
2022-09-20T13:10:24.652Z,5.45
2022-09-20T13:12:56.093Z,4.15
2022-09-20T13:15:22.780Z,5.27
2022-09-20T13:17:53.867Z,6.63
2022-09-20T13:20:24.290Z,4.18
2022-09-20T13:22:55.072Z,5.00
2022-09-20T13:25:25.299Z,6.10
2022-09-20T13:28:03.210Z,3.63
2022-09-20T13:30:30.459Z,5.13
2022-09-20T13:32:56.964Z,5.60
2022-09-20T13:35:25.806Z,6.63
2022-09-20T13:37:55.787Z,4.90
2022-09-20T13:40:25.815Z,5.57
2022-09-20T13:43:12.946Z,7.90
2022-09-20T13:45:42.234Z,5.57
2022-09-20T13:48:09.291Z,8.18
2022-09-20T13:50:36.027Z,7.30
2022-09-20T13:53:33.291Z,6.97
2022-09-20T13:56:09.023Z,5.72
2022-09-20T13:58:36.022Z,5.68
2022-09-20T14:01:04.987Z,5.70
2022-09-20T14:03:34.731Z,3.45
2022-09-20T14:06:04.194Z,4.47
2022-09-20T14:08:35.756Z,3.63
2022-09-20T14:11:06.919Z,3.35
2022-09-20T14:13:38.775Z,4.20
2022-09-20T14:16:06.878Z,3.25
2022-09-20T14:18:35.183Z,3.07
2022-09-20T14:21:02.520Z,5.63
2022-09-20T14:23:30.256Z,4.53
2022-09-20T14:26:20.598Z,3.08
2022-09-20T14:28:47.152Z,4.28
2022-09-20T14:31:17.912Z,6.17
2022-09-20T14:33:46.824Z,7.85
2022-09-20T14:36:14.643Z,4.18
2022-09-20T14:38:44.314Z,4.35
2022-09-20T14:41:13.246Z,6.72
2022-09-20T14:43:41.184Z,3.77
2022-09-20T14:46:15.247Z,3.95
2022-09-20T14:48:42.194Z,6.28
2022-09-20T14:51:23.383Z,9.95
2022-09-20T14:53:51.797Z,4.57
2022-09-20T14:56:34.119Z,7.37
2022-09-20T14:59:05.805Z,4.40
2022-09-20T15:01:32.945Z,2.85
2022-09-20T15:04:05.498Z,3.85
2022-09-20T15:06:35.015Z,3.88
2022-09-20T15:09:01.665Z,4.27
2022-09-20T15:11:29.571Z,3.33
2022-09-20T15:13:56.213Z,3.30
2022-09-20T15:16:22.880Z,3.25
2022-09-20T15:18:49.566Z,3.38
2022-09-20T15:21:16.063Z,2.70
2022-09-20T15:23:42.605Z,3.10
2022-09-20T15:26:11.757Z,3.38
2022-09-20T15:28:39.723Z,2.58
2022-09-20T15:31:06.767Z,3.30
2022-09-20T15:33:33.642Z,2.50
2022-09-20T15:36:02.259Z,2.90
2022-09-20T15:38:28.911Z,2.40
2022-09-20T15:40:55.448Z,6.80
2022-09-20T15:43:23.903Z,4.13
2022-09-20T15:45:53.192Z,4.40
2022-09-20T15:48:21.229Z,3.70
2022-09-20T15:50:59.842Z,4.05
2022-09-20T15:53:26.349Z,3.70
2022-09-20T15:55:52.978Z,3.50
2022-09-20T15:58:19.461Z,4.07
2022-09-20T16:00:46.036Z,4.78
2022-09-20T16:03:13.954Z,2.97
2022-09-20T16:05:40.452Z,3.00
2022-09-20T16:08:06.977Z,3.78
2022-09-20T16:10:33.518Z,4.17
2022-09-20T16:13:00.227Z,5.30
2022-09-20T16:15:26.724Z,5.22
2022-09-20T16:17:53.252Z,5.10
2022-09-20T16:20:21.555Z,3.38
2022-09-20T16:22:48.081Z,3.97
2022-09-20T16:25:14.724Z,3.60
2022-09-20T16:27:41.461Z,4.78
2022-09-20T16:30:09.003Z,3.67
2022-09-20T16:32:35.526Z,4.18
2022-09-20T16:35:02.044Z,4.23
2022-09-20T16:37:29.934Z,4.15
2022-09-20T16:39:56.481Z,5.93
2022-09-20T16:42:23.114Z,6.70
2022-09-20T16:44:49.640Z,5.82
2022-09-20T16:47:16.651Z,5.30
2022-09-20T16:49:43.142Z,5.88
2022-09-20T16:52:10.673Z,4.60
2022-09-20T16:54:38.550Z,5.18
2022-09-20T16:57:05.495Z,5.55
2022-09-20T16:59:32.061Z,9.67
2022-09-20T17:01:58.583Z,7.50
2022-09-20T17:04:25.160Z,6.97
2022-09-20T17:06:52.338Z,7.10
2022-09-20T17:09:19.153Z,6.00
2022-09-20T17:11:48.536Z,6.13
2022-09-20T17:14:16.419Z,6.88
2022-09-20T17:16:43.661Z,7.23
2022-09-20T17:19:12.003Z,6.97
2022-09-20T17:21:40.242Z,6.63
2022-09-20T17:24:07.597Z,7.90
2022-09-20T17:26:36.004Z,7.78
2022-09-20T17:29:05.917Z,7.97
2022-09-20T17:31:34.912Z,9.05
2022-09-20T17:34:02.124Z,7.32
2022-09-20T17:36:30.767Z,8.63
2022-09-20T17:39:03.601Z,8.43
2022-09-20T17:41:31.364Z,11.00
2022-09-20T17:43:59.523Z,9.02
2022-09-20T17:46:29.449Z,8.45
2022-09-20T17:48:57.579Z,7.72
2022-09-20T17:51:26.891Z,8.05
2022-09-20T17:53:53.669Z,8.23
2022-09-20T17:56:20.173Z,7.15
2022-09-20T17:58:46.722Z,7.72
2022-09-20T18:01:15.393Z,9.15
2022-09-20T18:03:45.062Z,10.98
2022-09-20T18:06:13.586Z,10.60
2022-09-20T18:08:40.445Z,7.50
2022-09-20T18:11:06.967Z,8.35
2022-09-20T18:13:33.598Z,9.10
2022-09-20T18:16:00.203Z,7.05
2022-09-20T18:18:26.820Z,8.40
2022-09-20T18:20:54.798Z,7.78
2022-09-20T18:23:21.293Z,8.48
2022-09-20T18:25:47.955Z,7.05
2022-09-20T18:28:14.465Z,6.10
2022-09-20T18:30:41.019Z,6.03
2022-09-20T18:33:07.573Z,7.35
2022-09-20T18:35:34.093Z,5.97
2022-09-20T18:38:02.083Z,6.97
2022-09-20T18:40:28.676Z,5.68
2022-09-20T18:42:55.314Z,6.80
2022-09-20T18:45:21.866Z,7.45
2022-09-20T18:47:48.371Z,8.38
2022-09-20T18:50:14.967Z,7.65
2022-09-20T18:52:41.473Z,9.55
2022-09-20T18:55:10.441Z,7.53
2022-09-20T18:57:37.389Z,8.77
2022-09-20T19:00:05.244Z,8.27
2022-09-20T19:02:50.776Z,7.50
2022-09-20T19:05:32.230Z,6.70
2022-09-20T19:08:12.962Z,6.97
2022-09-20T19:10:47.656Z,9.95
2022-09-20T19:13:26.575Z,11.48
2022-09-20T19:16:09.493Z,7.60
2022-09-20T19:18:54.862Z,8.32
2022-09-20T19:21:28.044Z,8.10
2022-09-20T19:24:08.994Z,8.15
2022-09-20T19:26:37.417Z,7.30
2022-09-20T19:29:16.717Z,6.93
2022-09-20T19:31:43.806Z,8.18
2022-09-20T19:34:16.345Z,6.13
2022-09-20T19:36:53.164Z,5.05
2022-09-20T19:39:26.935Z,6.00
2022-09-20T19:42:02.058Z,6.65
2022-09-20T19:44:39.979Z,7.05
2022-09-20T19:47:20.378Z,6.13
2022-09-20T19:49:53.346Z,6.38
2022-09-20T19:52:20.437Z,6.75
2022-09-20T19:54:47.616Z,6.53
2022-09-20T19:57:20.304Z,7.70
2022-09-20T19:59:48.017Z,6.47
2022-09-20T20:02:15.306Z,7.20
2022-09-20T20:04:42.431Z,6.82
2022-09-20T20:07:24.524Z,6.28
2022-09-20T20:09:59.018Z,7.40
2022-09-20T20:12:34.040Z,6.80
2022-09-20T20:15:08.038Z,5.95
2022-09-20T20:17:44.370Z,5.93
2022-09-20T20:20:18.157Z,6.95
2022-09-20T20:23:07.182Z,5.55
2022-09-20T20:25:41.345Z,6.87
2022-09-20T20:28:10.045Z,7.03
2022-09-20T20:30:36.536Z,5.30
2022-09-20T20:33:03.101Z,7.15
2022-09-20T20:35:29.635Z,5.22
2022-09-20T20:37:56.144Z,5.93
2022-09-20T20:40:25.011Z,9.27
2022-09-20T20:42:55.751Z,5.20
2022-09-20T20:45:23.761Z,6.82
2022-09-20T20:47:55.927Z,7.93
2022-09-20T20:50:22.535Z,6.40
2022-09-20T20:52:51.752Z,5.90
2022-09-20T20:55:18.405Z,5.70
2022-09-20T20:57:44.941Z,6.68
2022-09-20T21:00:12.530Z,5.85
2022-09-20T21:02:40.432Z,7.17
2022-09-20T21:05:07.768Z,6.10
2022-09-20T21:07:34.247Z,7.10
2022-09-20T21:10:01.189Z,13.25
2022-09-20T21:12:27.794Z,8.48
2022-09-20T21:14:54.319Z,5.97
2022-09-20T21:17:20.814Z,7.40
2022-09-20T21:19:48.681Z,6.72
2022-09-20T21:22:15.219Z,7.72
2022-09-20T21:24:41.737Z,6.40
2022-09-20T21:27:08.362Z,6.38
2022-09-20T21:29:34.859Z,6.47
2022-09-20T21:32:01.859Z,5.85
2022-09-20T21:34:28.353Z,7.45
2022-09-20T21:36:56.345Z,8.38
2022-09-20T21:39:22.860Z,8.57
2022-09-20T21:41:49.405Z,6.60
2022-09-20T21:44:15.893Z,6.07
2022-09-20T21:46:42.435Z,7.10
2022-09-20T21:49:10.262Z,6.80
2022-09-20T21:51:37.728Z,6.13
2022-09-20T21:54:05.976Z,6.20
2022-09-20T21:56:34.398Z,5.55
2022-09-20T21:59:00.907Z,6.30
2022-09-20T22:01:28.987Z,5.80
2022-09-20T22:03:57.043Z,6.47
2022-09-20T22:06:25.446Z,7.40
2022-09-20T22:08:54.182Z,7.60
2022-09-20T22:11:22.483Z,6.53
2022-09-20T22:13:50.912Z,5.97
2022-09-20T22:16:19.635Z,6.25
2022-09-20T22:18:46.784Z,6.30
2022-09-20T22:21:15.324Z,5.82
2022-09-20T22:23:42.688Z,6.82
2022-09-20T22:26:11.342Z,7.78
2022-09-20T22:28:39.603Z,6.00
2022-09-20T22:31:08.612Z,6.50
2022-09-20T22:33:36.237Z,6.03
2022-09-20T22:36:03.261Z,6.38
2022-09-20T22:38:31.053Z,6.03
2022-09-20T22:40:58.553Z,6.90
2022-09-20T22:43:25.422Z,6.53
2022-09-20T22:45:53.645Z,7.38
2022-09-20T22:48:20.296Z,5.45
2022-09-20T22:50:46.844Z,6.25
2022-09-20T22:53:13.386Z,6.82
2022-09-20T22:55:39.869Z,5.70
2022-09-20T22:58:06.571Z,7.13
2022-09-20T23:00:33.090Z,7.93
2022-09-20T23:03:01.069Z,5.57
2022-09-20T23:05:27.589Z,5.78
2022-09-20T23:07:54.200Z,5.67
2022-09-20T23:10:20.762Z,5.20
2022-09-20T23:12:50.180Z,5.90
2022-09-20T23:15:17.271Z,8.00
2022-09-20T23:17:43.768Z,6.05
2022-09-20T23:20:11.773Z,7.17
2022-09-20T23:22:38.276Z,6.18
2022-09-20T23:25:05.667Z,5.35
2022-09-20T23:27:32.160Z,6.53
2022-09-20T23:29:58.771Z,6.40
2022-09-20T23:32:25.276Z,6.20
2022-09-20T23:34:51.871Z,6.10
2022-09-20T23:37:19.722Z,6.13
2022-09-20T23:39:46.254Z,5.93
2022-09-20T23:42:12.870Z,6.63
2022-09-20T23:44:39.372Z,5.10
2022-09-20T23:47:05.998Z,6.90
2022-09-20T23:49:32.491Z,6.10
2022-09-20T23:51:59.030Z,6.15
2022-09-20T23:54:26.880Z,6.53
2022-09-20T23:56:53.495Z,5.00
2022-09-20T23:59:20.094Z,4.97
